Time;durP1;ratioP1;P1;durP2;ratioP2;P2;SDS_P1;SDS_P2;PMS_P1;PMS_P2;Temp;Humidity;BMP_temperature;BMP_pressure;BME280_temperature;BME280_humidity;BME280_pressure;Samples;Min_cycle;Max_cycle;Signal;HPM_P1;HPM_P2
2023/08/25 00:01:54;;;;;;;;;;;26.90;66.40;;;;;;5052388;28;19916;-55
2023/08/25 00:04:19;;;;;;;;;;;26.90;66.60;;;;;;5053364;28;19999;-55
2023/08/25 00:06:45;;;;;;;;;;;26.90;66.90;;;;;;5051950;28;20003;-55
2023/08/25 00:09:10;;;;;;;;;;;26.90;66.70;;;;;;5053284;28;19980;-55
2023/08/25 00:11:37;;;;;;;;;;;26.90;66.80;;;;;;5053250;28;19916;-55
2023/08/25 00:14:03;;;;;;;;;;;26.90;66.90;;;;;;5051986;28;19924;-54
2023/08/25 00:16:28;;;;;;;;;;;26.90;66.60;;;;;;5053102;28;20278;-55
2023/08/25 00:18:54;;;;;;;;;;;26.90;66.90;;;;;;5053263;28;19939;-54
2023/08/25 00:21:19;;;;;;;;;;;26.90;66.80;;;;;;5051900;28;19925;-54
2023/08/25 00:23:45;;;;;;;;;;;26.90;66.70;;;;;;5068598;28;19916;-55
2023/08/25 00:26:10;;;;;;;;;;;26.90;66.80;;;;;;5052357;28;19952;-54
2023/08/25 00:28:36;;;;;;;;;;;26.90;67.20;;;;;;5053011;28;20396;-55
2023/08/25 00:31:02;;;;;;;;;;;26.90;67.10;;;;;;5052938;28;19959;-55
2023/08/25 00:33:27;;;;;;;;;;;26.90;67.30;;;;;;5052251;28;19912;-55
2023/08/25 00:35:53;;;;;;;;;;;26.80;67.60;;;;;;5052867;28;20339;-55
2023/08/25 00:38:18;;;;;;;;;;;26.80;67.40;;;;;;5036241;28;19913;-55
2023/08/25 00:40:44;;;;;;;;;;;26.80;67.60;;;;;;5032929;28;19913;-53
2023/08/25 00:43:09;;;;;;;;;;;26.80;67.40;;;;;;5032937;28;19916;-54
2023/08/25 00:45:35;;;;;;;;;;;26.80;67.80;;;;;;5032936;28;19909;-55
2023/08/25 00:48:01;;;;;;;;;;;26.80;67.70;;;;;;5045212;28;19913;-55
2023/08/25 00:50:26;;;;;;;;;;;26.80;67.50;;;;;;5069573;28;19909;-55
2023/08/25 00:52:52;;;;;;;;;;;26.80;67.80;;;;;;5070477;28;19912;-54
2023/08/25 00:55:17;;;;;;;;;;;26.80;67.70;;;;;;5054827;28;19924;-54
2023/08/25 00:57:43;;;;;;;;;;;26.80;68.00;;;;;;5055523;28;19909;-55
2023/08/25 01:00:11;;;;;;;;;;;26.70;68.10;;;;;;5056787;28;20286;-55
2023/08/25 01:02:36;;;;;;;;;;;26.80;68.10;;;;;;5055492;28;19995;-55
2023/08/25 01:05:03;;;;;;;;;;;26.80;68.20;;;;;;5042114;28;19994;-54
2023/08/25 01:07:29;;;;;;;;;;;26.80;68.10;;;;;;5042256;28;19979;-55
2023/08/25 01:09:54;;;;;;;;;;;26.80;68.10;;;;;;5056580;28;19913;-55
2023/08/25 01:12:27;;;;;;;;;;;26.80;68.10;;;;;;5056588;28;20439;-55
2023/08/25 01:15:04;;;;;;;;;;;26.80;68.00;;;;;;5071473;28;19936;-54
2023/08/25 01:17:36;;;;;;;;;;;26.80;68.30;;;;;;5035440;28;20389;-54
2023/08/25 01:20:06;;;;;;;;;;;26.80;68.20;;;;;;5036427;28;20336;-55
2023/08/25 01:22:33;;;;;;;;;;;26.70;68.00;;;;;;5039132;28;19920;-55
2023/08/25 01:25:11;;;;;;;;;;;26.70;68.30;;;;;;5054760;28;19919;-55
2023/08/25 01:27:36;;;;;;;;;;;26.70;68.20;;;;;;5054997;28;19908;-55
2023/08/25 01:30:02;;;;;;;;;;;26.80;68.50;;;;;;5054997;28;19920;-54
2023/08/25 01:32:27;;;;;;;;;;;26.80;68.40;;;;;;5056697;28;19932;-55
2023/08/25 01:34:53;;;;;;;;;;;26.70;68.40;;;;;;5054984;28;20011;-55
2023/08/25 01:37:23;;;;;;;;;;;26.70;68.40;;;;;;5055095;28;19935;-54
2023/08/25 01:39:48;;;;;;;;;;;26.70;68.60;;;;;;5056145;28;19909;-54
2023/08/25 01:42:14;;;;;;;;;;;26.70;68.50;;;;;;5071621;28;20428;-54
2023/08/25 01:44:39;;;;;;;;;;;26.70;68.60;;;;;;5054907;28;20207;-54
2023/08/25 01:47:05;;;;;;;;;;;26.70;68.60;;;;;;5055999;28;19908;-55
2023/08/25 01:49:30;;;;;;;;;;;26.70;68.50;;;;;;5055988;28;19952;-55
2023/08/25 01:51:56;;;;;;;;;;;26.70;68.80;;;;;;5055729;28;20298;-55
2023/08/25 01:54:21;;;;;;;;;;;26.70;68.50;;;;;;5050897;28;19970;-54
2023/08/25 01:56:46;;;;;;;;;;;26.70;68.50;;;;;;5055010;28;19923;-55
2023/08/25 01:59:12;;;;;;;;;;;26.70;68.50;;;;;;5055714;28;19916;-55
2023/08/25 02:01:38;;;;;;;;;;;26.70;68.70;;;;;;5052561;28;19936;-54
2023/08/25 02:04:03;;;;;;;;;;;26.70;68.60;;;;;;5055801;28;19996;-55
2023/08/25 02:06:29;;;;;;;;;;;26.70;68.70;;;;;;5055574;28;20373;-55
2023/08/25 02:08:54;;;;;;;;;;;26.70;69.10;;;;;;5054243;28;19920;-55
2023/08/25 02:11:20;;;;;;;;;;;26.70;69.10;;;;;;5055475;28;19938;-55
2023/08/25 02:13:45;;;;;;;;;;;26.60;69.00;;;;;;5055048;28;19921;-54
2023/08/25 02:16:10;;;;;;;;;;;26.60;69.10;;;;;;5055430;28;19909;-55
2023/08/25 02:18:37;;;;;;;;;;;26.60;69.30;;;;;;5054220;28;19912;-55
2023/08/25 02:21:02;;;;;;;;;;;26.60;69.10;;;;;;5055271;28;19917;-55
2023/08/25 02:23:28;;;;;;;;;;;26.60;69.20;;;;;;5054114;28;19913;-55
2023/08/25 02:25:53;;;;;;;;;;;26.60;69.30;;;;;;5054447;28;20206;-54
2023/08/25 02:28:19;;;;;;;;;;;26.60;69.20;;;;;;5055220;28;19963;-55
2023/08/25 02:30:44;;;;;;;;;;;26.60;69.30;;;;;;5054222;28;19916;-54
2023/08/25 02:33:09;;;;;;;;;;;26.60;69.40;;;;;;5055065;28;20381;-55
2023/08/25 02:35:35;;;;;;;;;;;26.60;69.30;;;;;;5054915;28;19912;-55
2023/08/25 02:38:01;;;;;;;;;;;26.60;69.20;;;;;;5054970;28;19975;-54
2023/08/25 02:40:27;;;;;;;;;;;26.60;69.60;;;;;;5053864;28;19912;-54
2023/08/25 02:42:57;;;;;;;;;;;26.60;69.40;;;;;;5070255;28;20003;-55
2023/08/25 02:45:23;;;;;;;;;;;26.60;69.40;;;;;;5054871;28;19908;-54
2023/08/25 02:47:49;;;;;;;;;;;26.60;69.60;;;;;;5054760;28;19909;-54
2023/08/25 02:50:14;;;;;;;;;;;26.60;69.70;;;;;;5052860;28;19917;-54
2023/08/25 02:52:40;;;;;;;;;;;26.60;69.80;;;;;;5054622;28;19938;-55
2023/08/25 02:55:05;;;;;;;;;;;26.60;69.80;;;;;;5052271;28;19924;-54
2023/08/25 02:57:31;;;;;;;;;;;26.60;69.70;;;;;;5054931;28;19909;-55
2023/08/25 02:59:56;;;;;;;;;;;26.60;69.50;;;;;;5054578;28;19943;-55
2023/08/25 03:02:22;;;;;;;;;;;26.60;69.80;;;;;;5053643;28;20300;-54
2023/08/25 03:04:47;;;;;;;;;;;26.60;69.70;;;;;;5054441;28;20281;-55
2023/08/25 03:07:13;;;;;;;;;;;26.60;69.80;;;;;;5054445;28;19954;-55
2023/08/25 03:09:38;;;;;;;;;;;26.60;70.00;;;;;;5053088;28;19922;-55
2023/08/25 03:12:04;;;;;;;;;;;26.50;69.90;;;;;;5054085;28;20363;-53
2023/08/25 03:14:29;;;;;;;;;;;26.50;70.00;;;;;;5052418;28;19921;-55
2023/08/25 03:16:55;;;;;;;;;;;26.50;70.00;;;;;;5054249;28;19963;-56
2023/08/25 03:19:20;;;;;;;;;;;26.50;70.00;;;;;;5053100;28;19919;-54
2023/08/25 03:21:46;;;;;;;;;;;26.50;71.00;;;;;;5052798;28;20413;-55
2023/08/25 03:24:11;;;;;;;;;;;26.50;70.20;;;;;;5052777;28;19922;-54
2023/08/25 03:26:37;;;;;;;;;;;26.60;70.10;;;;;;5053309;28;19940;-54
2023/08/25 03:29:02;;;;;;;;;;;26.50;70.20;;;;;;5053086;28;19920;-53
2023/08/25 03:31:28;;;;;;;;;;;26.50;70.20;;;;;;5054057;28;20419;-55
2023/08/25 03:33:53;;;;;;;;;;;26.50;70.20;;;;;;5053765;28;20475;-54
2023/08/25 03:36:18;;;;;;;;;;;26.50;70.20;;;;;;5053816;28;19912;-55
2023/08/25 03:38:44;;;;;;;;;;;26.50;70.40;;;;;;5053758;28;19920;-54
2023/08/25 03:41:09;;;;;;;;;;;26.50;70.30;;;;;;5052403;28;19992;-55
2023/08/25 03:43:36;;;;;;;;;;;26.50;70.40;;;;;;5052326;28;19958;-54
2023/08/25 03:46:02;;;;;;;;;;;26.50;70.40;;;;;;5052327;28;19996;-55
2023/08/25 03:48:27;;;;;;;;;;;26.40;70.30;;;;;;5053673;28;19956;-54
2023/08/25 03:50:53;;;;;;;;;;;26.50;70.50;;;;;;5053663;28;19916;-55
2023/08/25 03:53:18;;;;;;;;;;;26.50;70.50;;;;;;5067701;28;19952;-54
2023/08/25 03:55:44;;;;;;;;;;;26.40;70.70;;;;;;5051785;28;19921;-55
2023/08/25 03:58:10;;;;;;;;;;;26.40;70.60;;;;;;5053439;28;19931;-54
2023/08/25 04:00:35;;;;;;;;;;;26.40;70.30;;;;;;5053436;28;19916;-54
2023/08/25 04:03:03;;;;;;;;;;;26.40;70.50;;;;;;5052178;28;19924;-55
2023/08/25 04:05:29;;;;;;;;;;;26.40;70.80;;;;;;5053315;28;19956;-54
2023/08/25 04:07:55;;;;;;;;;;;26.40;70.70;;;;;;5053288;28;20293;-54
2023/08/25 04:10:21;;;;;;;;;;;26.40;70.80;;;;;;5051992;28;19966;-53
2023/08/25 04:12:46;;;;;;;;;;;26.40;71.00;;;;;;5052044;28;19908;-54
2023/08/25 04:15:12;;;;;;;;;;;26.40;71.00;;;;;;5052968;28;19921;-54
2023/08/25 04:17:37;;;;;;;;;;;26.40;71.00;;;;;;5053179;28;19909;-54
2023/08/25 04:20:03;;;;;;;;;;;26.40;71.10;;;;;;5051807;28;19978;-55
2023/08/25 04:22:28;;;;;;;;;;;26.40;71.10;;;;;;5053089;28;20297;-55
2023/08/25 04:24:54;;;;;;;;;;;26.30;70.70;;;;;;5050332;28;19956;-54
2023/08/25 04:27:19;;;;;;;;;;;26.40;71.20;;;;;;5052437;28;19909;-54
2023/08/25 04:29:44;;;;;;;;;;;26.30;71.10;;;;;;5051670;28;19963;-55
2023/08/25 04:32:10;;;;;;;;;;;26.30;71.10;;;;;;5049743;28;19982;-55
2023/08/25 04:34:35;;;;;;;;;;;26.30;71.10;;;;;;5068340;28;19912;-55
2023/08/25 04:37:01;;;;;;;;;;;26.30;71.10;;;;;;5052883;28;19909;-53
2023/08/25 04:39:26;;;;;;;;;;;26.30;71.10;;;;;;5053062;28;19955;-54
2023/08/25 04:41:52;;;;;;;;;;;26.30;71.30;;;;;;5050643;28;20280;-55
2023/08/25 04:44:17;;;;;;;;;;;26.30;71.30;;;;;;5052863;28;19962;-54
2023/08/25 04:46:43;;;;;;;;;;;26.30;71.30;;;;;;5052750;28;19909;-54
2023/08/25 04:49:09;;;;;;;;;;;26.30;71.40;;;;;;5052839;28;19908;-54
2023/08/25 04:51:35;;;;;;;;;;;26.30;71.60;;;;;;5051988;28;19940;-55
2023/08/25 04:54:00;;;;;;;;;;;26.20;71.60;;;;;;5052677;28;19909;-54
2023/08/25 04:56:25;;;;;;;;;;;26.20;71.70;;;;;;5050789;28;19913;-55
2023/08/25 04:58:51;;;;;;;;;;;26.20;71.70;;;;;;5052693;28;19915;-54
2023/08/25 05:01:16;;;;;;;;;;;26.20;71.70;;;;;;5051412;28;20377;-53
2023/08/25 05:03:44;;;;;;;;;;;26.20;71.70;;;;;;5051584;28;19920;-53
2023/08/25 05:06:10;;;;;;;;;;;26.20;71.90;;;;;;5052674;28;19940;-54
2023/08/25 05:08:36;;;;;;;;;;;26.20;71.90;;;;;;5052565;28;20266;-55
2023/08/25 05:11:01;;;;;;;;;;;26.20;72.00;;;;;;5051485;28;19921;-55
2023/08/25 05:13:27;;;;;;;;;;;26.20;72.10;;;;;;5052293;28;21010;-55
2023/08/25 05:15:53;;;;;;;;;;;26.20;72.10;;;;;;5052423;28;19948;-55
2023/08/25 05:18:19;;;;;;;;;;;26.20;72.00;;;;;;5052561;28;19955;-53
2023/08/25 05:20:44;;;;;;;;;;;26.20;72.00;;;;;;5051355;28;19913;-53
2023/08/25 05:23:10;;;;;;;;;;;26.20;71.90;;;;;;5051797;28;19912;-54
2023/08/25 05:25:36;;;;;;;;;;;26.20;72.10;;;;;;5051679;28;19954;-55
2023/08/25 05:28:01;;;;;;;;;;;26.20;72.00;;;;;;5051267;28;19963;-54
2023/08/25 05:30:26;;;;;;;;;;;26.20;72.00;;;;;;5052515;28;20019;-54
2023/08/25 05:32:52;;;;;;;;;;;26.20;72.10;;;;;;5050043;28;19909;-54
2023/08/25 05:35:17;;;;;;;;;;;26.20;72.10;;;;;;5049819;28;20369;-55
2023/08/25 05:37:43;;;;;;;;;;;26.20;72.00;;;;;;5050482;28;19913;-55
2023/08/25 05:40:09;;;;;;;;;;;26.20;72.10;;;;;;5049808;28;19914;-55
2023/08/25 05:42:37;;;;;;;;;;;26.20;72.00;;;;;;5039519;28;19960;-54
2023/08/25 05:45:03;;;;;;;;;;;26.20;72.00;;;;;;5036386;28;20000;-54
2023/08/25 05:47:28;;;;;;;;;;;26.20;72.10;;;;;;5036024;28;20373;-54
2023/08/25 05:49:54;;;;;;;;;;;26.20;72.10;;;;;;5035858;28;20497;-54
2023/08/25 05:52:20;;;;;;;;;;;26.20;72.20;;;;;;5048076;28;19909;-55
2023/08/25 05:54:46;;;;;;;;;;;26.20;72.30;;;;;;5053787;28;19916;-53
2023/08/25 05:57:11;;;;;;;;;;;26.20;72.20;;;;;;5055698;28;20368;-55
2023/08/25 05:59:37;;;;;;;;;;;26.20;72.30;;;;;;5054329;28;19950;-55
2023/08/25 06:02:02;;;;;;;;;;;26.20;72.30;;;;;;5056032;28;19916;-55
2023/08/25 06:04:28;;;;;;;;;;;26.20;72.30;;;;;;5054385;28;19944;-55
2023/08/25 06:06:53;;;;;;;;;;;26.20;72.30;;;;;;5055567;28;19972;-55
2023/08/25 06:09:19;;;;;;;;;;;26.20;72.30;;;;;;5054552;28;19908;-55
2023/08/25 06:11:44;;;;;;;;;;;26.20;72.30;;;;;;5055540;28;19923;-55
2023/08/25 06:14:10;;;;;;;;;;;26.20;72.50;;;;;;5055233;28;19921;-55
2023/08/25 06:16:38;;;;;;;;;;;26.20;72.40;;;;;;5054041;28;19913;-55
2023/08/25 06:19:04;;;;;;;;;;;26.10;72.50;;;;;;5054096;28;19968;-53
2023/08/25 06:21:30;;;;;;;;;;;26.20;72.60;;;;;;5070857;28;19909;-54
2023/08/25 06:23:55;;;;;;;;;;;26.10;72.50;;;;;;5054497;28;19913;-54
2023/08/25 06:26:20;;;;;;;;;;;26.10;72.60;;;;;;5054102;28;20329;-54
2023/08/25 06:28:46;;;;;;;;;;;26.20;72.60;;;;;;5055196;28;19913;-55
2023/08/25 06:31:12;;;;;;;;;;;26.10;73.30;;;;;;5055436;28;19909;-55
2023/08/25 06:33:38;;;;;;;;;;;26.10;72.50;;;;;;5053890;28;20308;-55
2023/08/25 06:36:04;;;;;;;;;;;26.10;72.50;;;;;;5070342;28;19912;-54
2023/08/25 06:38:30;;;;;;;;;;;26.10;72.50;;;;;;5055032;28;20004;-54
2023/08/25 06:40:55;;;;;;;;;;;26.10;73.30;;;;;;5053596;28;19917;-54
2023/08/25 06:43:21;;;;;;;;;;;26.10;72.60;;;;;;5052372;28;19916;-53
2023/08/25 06:45:46;;;;;;;;;;;26.10;72.50;;;;;;5053316;28;19920;-55
2023/08/25 06:48:12;;;;;;;;;;;26.20;72.60;;;;;;5054862;28;20242;-54
2023/08/25 06:50:37;;;;;;;;;;;26.10;72.50;;;;;;5052641;28;19909;-54
2023/08/25 06:53:04;;;;;;;;;;;26.10;72.50;;;;;;5054741;28;20003;-55
2023/08/25 06:55:32;;;;;;;;;;;26.10;72.60;;;;;;5052683;28;19913;-54
2023/08/25 06:57:59;;;;;;;;;;;26.10;72.50;;;;;;5053370;28;19920;-55
2023/08/25 07:00:25;;;;;;;;;;;26.10;72.50;;;;;;5052503;28;20343;-55
2023/08/25 07:02:52;;;;;;;;;;;26.20;72.60;;;;;;5053789;28;20496;-54
2023/08/25 07:05:18;;;;;;;;;;;26.20;72.60;;;;;;5054543;28;20001;-55
2023/08/25 07:07:44;;;;;;;;;;;26.20;72.70;;;;;;5054500;28;20422;-54
2023/08/25 07:10:09;;;;;;;;;;;26.20;72.60;;;;;;5053036;28;19912;-54
2023/08/25 07:12:35;;;;;;;;;;;26.20;72.60;;;;;;5054255;28;19989;-54
2023/08/25 07:15:01;;;;;;;;;;;26.20;72.80;;;;;;5054054;28;19975;-55
2023/08/25 07:17:26;;;;;;;;;;;26.20;72.60;;;;;;5053023;28;19966;-54
2023/08/25 07:19:52;;;;;;;;;;;26.20;72.60;;;;;;5069756;28;19909;-53
2023/08/25 07:22:17;;;;;;;;;;;26.20;72.60;;;;;;5066711;28;19916;-54
2023/08/25 07:24:42;;;;;;;;;;;26.20;72.60;;;;;;5051505;28;19912;-55
2023/08/25 07:27:08;;;;;;;;;;;26.20;72.60;;;;;;5053845;28;19913;-55
2023/08/25 07:29:36;;;;;;;;;;;26.10;72.50;;;;;;5053988;28;19912;-54
2023/08/25 07:32:02;;;;;;;;;;;26.20;72.60;;;;;;5054003;28;19916;-55
2023/08/25 07:34:28;;;;;;;;;;;26.20;72.60;;;;;;5052080;28;19912;-55
2023/08/25 07:36:53;;;;;;;;;;;26.20;72.60;;;;;;5052629;28;19951;-55
2023/08/25 07:39:19;;;;;;;;;;;26.20;72.60;;;;;;5050889;28;19920;-54
2023/08/25 07:41:44;;;;;;;;;;;26.20;72.60;;;;;;5053756;28;19920;-54
2023/08/25 07:44:10;;;;;;;;;;;26.20;72.60;;;;;;5053766;28;19951;-55
2023/08/25 07:46:38;;;;;;;;;;;26.20;72.60;;;;;;5052572;28;19999;-54
2023/08/25 07:49:05;;;;;;;;;;;26.20;72.60;;;;;;5052731;28;19916;-55
2023/08/25 07:51:31;;;;;;;;;;;26.20;72.70;;;;;;5053599;28;20296;-54
2023/08/25 07:53:57;;;;;;;;;;;26.10;72.50;;;;;;5052273;28;20369;-54
2023/08/25 07:56:22;;;;;;;;;;;26.10;72.60;;;;;;5051567;28;19916;-54
2023/08/25 07:58:48;;;;;;;;;;;26.10;72.70;;;;;;5053130;28;20276;-55
2023/08/25 08:01:13;;;;;;;;;;;26.10;72.70;;;;;;5041693;28;19909;-54
2023/08/25 08:03:39;;;;;;;;;;;26.10;72.60;;;;;;5033561;28;20024;-54
2023/08/25 08:06:04;;;;;;;;;;;26.10;72.70;;;;;;5033425;28;20384;-54
2023/08/25 08:08:29;;;;;;;;;;;26.10;72.70;;;;;;5033405;28;20388;-54
2023/08/25 08:10:55;;;;;;;;;;;26.10;72.80;;;;;;5050026;28;20098;-54
2023/08/25 08:13:20;;;;;;;;;;;26.10;72.60;;;;;;5053028;28;19919;-54
2023/08/25 08:15:46;;;;;;;;;;;26.10;72.80;;;;;;5053210;28;19921;-55
2023/08/25 08:18:11;;;;;;;;;;;26.10;72.60;;;;;;5053273;28;19908;-55
2023/08/25 08:20:37;;;;;;;;;;;26.20;72.70;;;;;;5051950;28;19955;-54
2023/08/25 08:23:03;;;;;;;;;;;26.10;72.70;;;;;;5051712;28;19924;-55
2023/08/25 08:25:30;;;;;;;;;;;26.10;72.80;;;;;;5051165;28;19913;-54
2023/08/25 08:27:56;;;;;;;;;;;26.10;73.00;;;;;;5052866;28;20270;-55
2023/08/25 08:30:21;;;;;;;;;;;26.10;73.10;;;;;;5050522;28;19915;-55
2023/08/25 08:32:47;;;;;;;;;;;26.10;73.00;;;;;;5053048;28;20384;-54
2023/08/25 08:35:12;;;;;;;;;;;26.10;73.00;;;;;;5049561;28;19912;-54
2023/08/25 08:37:41;;;;;;;;;;;26.10;73.10;;;;;;5051643;28;19991;-54
2023/08/25 08:40:09;;;;;;;;;;;26.20;73.10;;;;;;5051564;28;19923;-54
2023/08/25 08:42:35;;;;;;;;;;;26.10;73.00;;;;;;5068115;28;19913;-54
2023/08/25 08:45:05;;;;;;;;;;;26.20;73.80;;;;;;5052873;28;20327;-54
2023/08/25 08:47:31;;;;;;;;;;;26.10;73.00;;;;;;5052385;28;19913;-54
2023/08/25 08:49:56;;;;;;;;;;;26.10;73.10;;;;;;5033341;28;19936;-55
2023/08/25 08:52:22;;;;;;;;;;;26.20;73.20;;;;;;5031558;28;20357;-55
2023/08/25 08:54:47;;;;;;;;;;;26.20;73.00;;;;;;5035399;28;19916;-54
2023/08/25 08:57:14;;;;;;;;;;;26.20;73.00;;;;;;5044362;28;19920;-54
2023/08/25 08:59:41;;;;;;;;;;;26.20;73.00;;;;;;5052784;28;19951;-54
2023/08/25 09:02:07;;;;;;;;;;;26.20;73.00;;;;;;5052627;28;20396;-55
2023/08/25 09:04:32;;;;;;;;;;;26.20;73.00;;;;;;5047537;28;19955;-55
2023/08/25 09:06:58;;;;;;;;;;;26.10;72.90;;;;;;5051313;28;19913;-55
2023/08/25 09:09:23;;;;;;;;;;;26.20;72.90;;;;;;5052778;28;19932;-55
2023/08/25 09:11:49;;;;;;;;;;;26.10;73.00;;;;;;5046042;28;20020;-54
2023/08/25 09:14:27;;;;;;;;;;;26.10;73.00;;;;;;5046142;28;19924;-54
2023/08/25 09:16:54;;;;;;;;;;;26.10;73.00;;;;;;5071568;28;19913;-55
2023/08/25 09:19:19;;;;;;;;;;;26.20;73.00;;;;;;5056448;28;20274;-55
2023/08/25 09:21:45;;;;;;;;;;;26.10;72.90;;;;;;5056324;28;19962;-55
2023/08/25 09:24:11;;;;;;;;;;;26.20;73.00;;;;;;5055171;28;19913;-55
2023/08/25 09:26:37;;;;;;;;;;;26.10;72.90;;;;;;5059600;28;19913;-54
2023/08/25 09:29:03;;;;;;;;;;;26.20;73.00;;;;;;5056304;28;19909;-54
2023/08/25 09:31:29;;;;;;;;;;;26.10;72.90;;;;;;5063668;28;20003;-56
2023/08/25 09:34:15;;;;;;;;;;;26.10;73.00;;;;;;5056230;28;20011;-55
2023/08/25 09:36:53;;;;;;;;;;;26.10;73.00;;;;;;5055820;28;19920;-54
2023/08/25 09:39:19;;;;;;;;;;;26.10;73.00;;;;;;5048944;28;19963;-53
2023/08/25 09:41:46;;;;;;;;;;;26.10;73.10;;;;;;5036078;28;20435;-55
2023/08/25 09:44:11;;;;;;;;;;;26.10;73.00;;;;;;5035217;28;19909;-54
2023/08/25 09:46:37;;;;;;;;;;;26.10;73.00;;;;;;5036151;28;19916;-55
2023/08/25 09:49:03;;;;;;;;;;;26.10;73.00;;;;;;5036625;28;19963;-55
2023/08/25 09:51:34;;;;;;;;;;;26.10;72.90;;;;;;5039733;28;20039;-55
2023/08/25 09:54:00;;;;;;;;;;;26.10;73.00;;;;;;5049376;28;19983;-55
2023/08/25 09:56:26;;;;;;;;;;;26.10;73.00;;;;;;5052929;28;19913;-55
2023/08/25 09:58:51;;;;;;;;;;;26.10;73.00;;;;;;5047913;28;19913;-54
2023/08/25 10:01:17;;;;;;;;;;;26.10;73.00;;;;;;5045756;28;19913;-55
2023/08/25 10:03:42;;;;;;;;;;;26.10;72.90;;;;;;5053943;28;19913;-55
2023/08/25 10:06:08;;;;;;;;;;;26.10;72.90;;;;;;5070993;28;19940;-55
2023/08/25 10:08:34;;;;;;;;;;;26.10;72.80;;;;;;5065778;28;19912;-55
2023/08/25 10:10:59;;;;;;;;;;;26.10;72.80;;;;;;5053904;28;19913;-54
2023/08/25 10:13:25;;;;;;;;;;;26.10;72.80;;;;;;5070867;28;19927;-54
2023/08/25 10:15:50;;;;;;;;;;;26.10;72.80;;;;;;5055306;28;19913;-54
2023/08/25 10:18:16;;;;;;;;;;;26.10;72.90;;;;;;5051163;28;20388;-54
2023/08/25 10:20:41;;;;;;;;;;;26.10;72.70;;;;;;5055363;28;20333;-54
2023/08/25 10:23:08;;;;;;;;;;;26.10;72.80;;;;;;5070173;28;19909;-55
2023/08/25 10:25:34;;;;;;;;;;;26.10;72.70;;;;;;5035426;28;19913;-55
2023/08/25 10:28:01;;;;;;;;;;;26.10;72.70;;;;;;5051717;28;19920;-54
2023/08/25 10:30:26;;;;;;;;;;;26.10;72.80;;;;;;5069705;28;20371;-55
2023/08/25 10:32:56;;;;;;;;;;;26.20;72.80;;;;;;5055017;28;19909;-55
2023/08/25 10:35:40;;;;;;;;;;;26.20;72.80;;;;;;5054958;28;20262;-55
2023/08/25 10:38:17;;;;;;;;;;;26.10;72.80;;;;;;5049030;28;19918;-55
2023/08/25 10:40:43;;;;;;;;;;;26.20;72.90;;;;;;5052737;28;19967;-55
2023/08/25 10:43:08;;;;;;;;;;;26.20;72.80;;;;;;5064656;28;20410;-54
2023/08/25 10:45:35;;;;;;;;;;;26.20;72.70;;;;;;5054908;28;19916;-54
2023/08/25 10:48:00;;;;;;;;;;;26.20;72.80;;;;;;5054759;28;19908;-55
2023/08/25 10:50:26;;;;;;;;;;;26.20;72.80;;;;;;5070298;28;20003;-55
2023/08/25 10:52:52;;;;;;;;;;;26.10;72.60;;;;;;5053313;28;19912;-54
2023/08/25 10:55:44;;;;;;;;;;;26.10;72.80;;;;;;5052620;28;19948;-54
2023/08/25 10:58:10;;;;;;;;;;;26.20;72.80;;;;;;5037979;28;19964;-55
2023/08/25 11:00:36;;;;;;;;;;;26.20;72.60;;;;;;5045885;28;19956;-54
2023/08/25 11:03:02;;;;;;;;;;;26.20;72.80;;;;;;5043442;28;19913;-55
2023/08/25 11:05:28;;;;;;;;;;;26.20;72.70;;;;;;5054456;28;19970;-54
2023/08/25 11:07:57;;;;;;;;;;;26.10;72.70;;;;;;5053327;28;19913;-55
2023/08/25 11:10:23;;;;;;;;;;;26.10;72.70;;;;;;5054362;28;20396;-55
2023/08/25 11:12:50;;;;;;;;;;;26.20;72.60;;;;;;5052936;28;19909;-54
2023/08/25 11:15:15;;;;;;;;;;;26.20;72.60;;;;;;5054029;28;19985;-54
2023/08/25 11:17:41;;;;;;;;;;;26.20;72.60;;;;;;5053195;28;20373;-54
2023/08/25 11:20:07;;;;;;;;;;;26.20;72.60;;;;;;5054279;28;19920;-54
2023/08/25 11:22:32;;;;;;;;;;;26.20;72.60;;;;;;5052942;28;20007;-55
2023/08/25 11:24:57;;;;;;;;;;;26.20;72.60;;;;;;5051913;28;19913;-55
2023/08/25 11:27:23;;;;;;;;;;;26.20;72.60;;;;;;5052846;28;19962;-55
2023/08/25 11:29:49;;;;;;;;;;;26.20;72.60;;;;;;5054088;28;19909;-54
2023/08/25 11:32:15;;;;;;;;;;;26.20;72.60;;;;;;5053994;28;19909;-54
2023/08/25 11:34:40;;;;;;;;;;;26.20;72.60;;;;;;5053183;28;19967;-54
2023/08/25 11:37:06;;;;;;;;;;;26.20;72.60;;;;;;5053848;28;19909;-54
2023/08/25 11:39:31;;;;;;;;;;;26.10;72.60;;;;;;5051307;28;19912;-55
2023/08/25 11:41:57;;;;;;;;;;;26.10;72.80;;;;;;5051833;28;20008;-53
2023/08/25 11:44:22;;;;;;;;;;;26.10;72.80;;;;;;5053772;28;19915;-54
2023/08/25 11:46:48;;;;;;;;;;;26.10;72.70;;;;;;5053714;28;20011;-54
2023/08/25 11:49:14;;;;;;;;;;;26.10;72.80;;;;;;5050516;28;19958;-54
2023/08/25 11:51:39;;;;;;;;;;;26.10;72.90;;;;;;5048128;28;19913;-54
2023/08/25 11:54:05;;;;;;;;;;;26.10;73.00;;;;;;5037947;28;19957;-55
2023/08/25 11:56:31;;;;;;;;;;;26.10;73.20;;;;;;5034208;28;19909;-54
2023/08/25 11:58:56;;;;;;;;;;;26.10;73.30;;;;;;5033676;28;20446;-55
2023/08/25 12:01:22;;;;;;;;;;;26.10;73.30;;;;;;5033516;28;20381;-54
2023/08/25 12:03:47;;;;;;;;;;;26.10;73.50;;;;;;5044937;28;19909;-54
2023/08/25 12:06:13;;;;;;;;;;;26.00;73.60;;;;;;5053431;28;19913;-54
2023/08/25 12:08:39;;;;;;;;;;;26.00;73.60;;;;;;5052017;28;20442;-54
2023/08/25 12:11:05;;;;;;;;;;;26.00;74.40;;;;;;5053359;28;19999;-54
2023/08/25 12:13:31;;;;;;;;;;;26.10;73.60;;;;;;5052175;28;19997;-54
2023/08/25 12:15:56;;;;;;;;;;;26.10;73.70;;;;;;5052878;28;19927;-54
2023/08/25 12:18:22;;;;;;;;;;;26.10;73.70;;;;;;5068742;28;19955;-55
2023/08/25 12:20:48;;;;;;;;;;;26.10;73.70;;;;;;5051992;28;19920;-54
2023/08/25 12:23:13;;;;;;;;;;;26.10;73.70;;;;;;5052007;28;19912;-54
2023/08/25 12:25:42;;;;;;;;;;;26.10;73.90;;;;;;5051062;28;19931;-55
2023/08/25 12:28:07;;;;;;;;;;;26.10;73.80;;;;;;5067240;28;20338;-54
2023/08/25 12:30:33;;;;;;;;;;;26.10;74.00;;;;;;5053040;28;19909;-54
2023/08/25 12:32:58;;;;;;;;;;;26.10;74.00;;;;;;5051628;28;19915;-54
2023/08/25 12:35:24;;;;;;;;;;;26.10;73.90;;;;;;5052882;28;20050;-55
2023/08/25 12:37:49;;;;;;;;;;;26.10;73.80;;;;;;5051747;28;19913;-55
2023/08/25 12:40:20;;;;;;;;;;;26.10;74.00;;;;;;5052898;28;20373;-55
2023/08/25 12:42:46;;;;;;;;;;;26.20;74.00;;;;;;5059654;28;19991;-54
2023/08/25 12:45:11;;;;;;;;;;;26.20;74.20;;;;;;5052743;28;19909;-55
2023/08/25 12:47:37;;;;;;;;;;;26.20;74.20;;;;;;5066241;28;19967;-55
2023/08/25 12:50:02;;;;;;;;;;;26.20;74.10;;;;;;5052892;28;19908;-54
2023/08/25 12:52:31;;;;;;;;;;;26.10;73.90;;;;;;5051762;28;19962;-54
2023/08/25 12:54:57;;;;;;;;;;;26.20;74.30;;;;;;5051838;28;19943;-54
2023/08/25 12:57:22;;;;;;;;;;;26.20;74.30;;;;;;5052786;28;19913;-54
2023/08/25 12:59:48;;;;;;;;;;;26.20;74.20;;;;;;5052945;28;19909;-54
2023/08/25 13:02:13;;;;;;;;;;;26.20;74.20;;;;;;5052686;28;19909;-54
2023/08/25 13:04:39;;;;;;;;;;;26.20;74.10;;;;;;5051998;28;19997;-55
2023/08/25 13:07:04;;;;;;;;;;;26.20;74.00;;;;;;5051721;28;19920;-55
2023/08/25 13:09:30;;;;;;;;;;;26.20;74.00;;;;;;5068148;28;20028;-54
2023/08/25 13:11:55;;;;;;;;;;;26.20;73.90;;;;;;5052698;28;20270;-53
2023/08/25 13:14:23;;;;;;;;;;;26.20;73.90;;;;;;5052331;28;19917;-54
2023/08/25 13:16:48;;;;;;;;;;;26.20;73.90;;;;;;5050614;28;20048;-53
2023/08/25 13:19:14;;;;;;;;;;;26.20;73.80;;;;;;5052554;28;19949;-54
2023/08/25 13:21:39;;;;;;;;;;;26.20;73.90;;;;;;5049312;28;19921;-54
2023/08/25 13:24:05;;;;;;;;;;;26.20;73.80;;;;;;5052508;28;20377;-55
2023/08/25 13:26:30;;;;;;;;;;;26.20;73.80;;;;;;5051020;28;19940;-54
2023/08/25 13:28:55;;;;;;;;;;;26.20;73.90;;;;;;5052736;28;20007;-54
2023/08/25 13:31:21;;;;;;;;;;;26.20;73.90;;;;;;5051555;28;19912;-54
2023/08/25 13:33:46;;;;;;;;;;;26.20;74.00;;;;;;5052332;28;19909;-54
2023/08/25 13:36:12;;;;;;;;;;;26.20;74.00;;;;;;5047924;28;19924;-54
2023/08/25 13:38:37;;;;;;;;;;;26.20;74.00;;;;;;5032510;28;20020;-54
2023/08/25 13:41:03;;;;;;;;;;;26.20;73.90;;;;;;5032583;28;19913;-55
2023/08/25 13:43:31;;;;;;;;;;;26.20;74.00;;;;;;5032457;28;19936;-55
2023/08/25 13:45:56;;;;;;;;;;;26.20;73.90;;;;;;5032411;28;19917;-54
2023/08/25 13:48:22;;;;;;;;;;;26.20;73.90;;;;;;5044346;28;19937;-55
2023/08/25 13:50:49;;;;;;;;;;;26.20;73.90;;;;;;5052232;28;20336;-55
2023/08/25 13:53:15;;;;;;;;;;;26.20;73.80;;;;;;5050802;28;19966;-54
2023/08/25 13:55:40;;;;;;;;;;;26.20;73.90;;;;;;5051462;28;19913;-54
2023/08/25 13:58:05;;;;;;;;;;;26.20;73.80;;;;;;5053407;28;19917;-54
2023/08/25 14:00:31;;;;;;;;;;;26.20;73.90;;;;;;5056030;28;19916;-54
2023/08/25 14:02:56;;;;;;;;;;;26.10;73.90;;;;;;5054405;28;19921;-54
2023/08/25 14:05:22;;;;;;;;;;;26.10;74.00;;;;;;5055841;28;19909;-54
2023/08/25 14:07:50;;;;;;;;;;;26.10;73.90;;;;;;5053707;28;19956;-54
2023/08/25 14:10:17;;;;;;;;;;;26.10;74.00;;;;;;5054317;28;20003;-53